sensor_id;sensor_type;location;lat;lon;timestamp;temperature;humidity
31979;DHT22;18502;43.574;1.276;2024-02-04T00:00:26;5.80;99.90
31979;DHT22;18502;43.574;1.276;2024-02-04T00:02:52;5.80;99.90
31979;DHT22;18502;43.574;1.276;2024-02-04T00:05:18;5.90;99.90
31979;DHT22;18502;43.574;1.276;2024-02-04T00:07:44;5.90;99.90
31979;DHT22;18502;43.574;1.276;2024-02-04T00:10:10;5.90;99.90
31979;DHT22;18502;43.574;1.276;2024-02-04T00:12:36;5.80;99.90
31979;DHT22;18502;43.574;1.276;2024-02-04T00:15:02;6.00;99.90
31979;DHT22;18502;43.574;1.276;2024-02-04T00:17:30;6.20;99.90
31979;DHT22;18502;43.574;1.276;2024-02-04T00:20:02;6.20;99.90
31979;DHT22;18502;43.574;1.276;2024-02-04T00:22:28;6.20;99.90
31979;DHT22;18502;43.574;1.276;2024-02-04T00:24:54;6.30;99.90
31979;DHT22;18502;43.574;1.276;2024-02-04T00:27:20;6.30;99.90
31979;DHT22;18502;43.574;1.276;2024-02-04T00:29:45;6.30;99.90
31979;DHT22;18502;43.574;1.276;2024-02-04T00:32:11;6.30;99.90
31979;DHT22;18502;43.574;1.276;2024-02-04T00:34:37;6.30;99.90
31979;DHT22;18502;43.574;1.276;2024-02-04T00:37:02;6.40;99.90
31979;DHT22;18502;43.574;1.276;2024-02-04T00:39:28;6.30;99.90
31979;DHT22;18502;43.574;1.276;2024-02-04T00:41:54;6.30;99.90
31979;DHT22;18502;43.574;1.276;2024-02-04T00:44:19;6.40;99.90
31979;DHT22;18502;43.574;1.276;2024-02-04T00:46:45;6.30;99.90
31979;DHT22;18502;43.574;1.276;2024-02-04T00:49:11;6.30;99.90
31979;DHT22;18502;43.574;1.276;2024-02-04T00:51:36;6.30;99.90
31979;DHT22;18502;43.574;1.276;2024-02-04T00:54:02;6.30;99.90
31979;DHT22;18502;43.574;1.276;2024-02-04T00:56:27;6.30;99.90
31979;DHT22;18502;43.574;1.276;2024-02-04T00:58:53;6.00;99.90
31979;DHT22;18502;43.574;1.276;2024-02-04T01:01:19;6.00;99.90
31979;DHT22;18502;43.574;1.276;2024-02-04T01:03:45;6.00;99.90
31979;DHT22;18502;43.574;1.276;2024-02-04T01:06:11;6.10;99.90
31979;DHT22;18502;43.574;1.276;2024-02-04T01:08:37;6.10;99.90
31979;DHT22;18502;43.574;1.276;2024-02-04T01:11:06;6.00;99.90
31979;DHT22;18502;43.574;1.276;2024-02-04T01:13:32;6.00;99.90
31979;DHT22;18502;43.574;1.276;2024-02-04T01:15:57;6.00;99.90
31979;DHT22;18502;43.574;1.276;2024-02-04T01:18:23;6.00;99.90
31979;DHT22;18502;43.574;1.276;2024-02-04T01:20:49;6.00;99.90
31979;DHT22;18502;43.574;1.276;2024-02-04T01:23:15;5.90;99.90
31979;DHT22;18502;43.574;1.276;2024-02-04T01:25:43;5.90;99.90
31979;DHT22;18502;43.574;1.276;2024-02-04T01:28:08;6.00;99.90
31979;DHT22;18502;43.574;1.276;2024-02-04T01:30:34;6.00;99.90
31979;DHT22;18502;43.574;1.276;2024-02-04T01:33:00;6.00;99.90
31979;DHT22;18502;43.574;1.276;2024-02-04T01:35:26;6.10;99.90
31979;DHT22;18502;43.574;1.276;2024-02-04T01:37:52;6.00;99.90
31979;DHT22;18502;43.574;1.276;2024-02-04T01:40:17;5.90;99.90
31979;DHT22;18502;43.574;1.276;2024-02-04T01:42:43;5.80;99.90
31979;DHT22;18502;43.574;1.276;2024-02-04T01:45:09;5.70;99.90
31979;DHT22;18502;43.574;1.276;2024-02-04T01:47:35;5.70;99.90
31979;DHT22;18502;43.574;1.276;2024-02-04T01:50:01;5.60;99.90
31979;DHT22;18502;43.574;1.276;2024-02-04T01:52:30;5.70;99.90
31979;DHT22;18502;43.574;1.276;2024-02-04T01:54:56;5.80;99.90
31979;DHT22;18502;43.574;1.276;2024-02-04T01:57:23;5.90;99.90
31979;DHT22;18502;43.574;1.276;2024-02-04T01:59:49;5.70;99.90
31979;DHT22;18502;43.574;1.276;2024-02-04T02:02:17;5.70;99.90
31979;DHT22;18502;43.574;1.276;2024-02-04T02:04:43;5.80;99.90
31979;DHT22;18502;43.574;1.276;2024-02-04T02:07:09;5.90;99.90
31979;DHT22;18502;43.574;1.276;2024-02-04T02:09:35;5.90;99.90
31979;DHT22;18502;43.574;1.276;2024-02-04T02:12:11;5.90;99.90
31979;DHT22;18502;43.574;1.276;2024-02-04T02:14:41;5.50;99.90
31979;DHT22;18502;43.574;1.276;2024-02-04T02:17:11;5.60;99.90
31979;DHT22;18502;43.574;1.276;2024-02-04T02:20:09;5.70;99.90
31979;DHT22;18502;43.574;1.276;2024-02-04T02:23:17;5.70;99.90
31979;DHT22;18502;43.574;1.276;2024-02-04T02:25:47;5.80;99.90
31979;DHT22;18502;43.574;1.276;2024-02-04T02:28:14;5.90;99.90
31979;DHT22;18502;43.574;1.276;2024-02-04T02:30:40;5.80;99.90
31979;DHT22;18502;43.574;1.276;2024-02-04T02:33:06;5.80;99.90
31979;DHT22;18502;43.574;1.276;2024-02-04T02:35:34;5.80;99.90
31979;DHT22;18502;43.574;1.276;2024-02-04T02:40:49;5.90;99.90
31979;DHT22;18502;43.574;1.276;2024-02-04T02:43:17;5.90;99.90
31979;DHT22;18502;43.574;1.276;2024-02-04T02:45:44;5.90;99.90
31979;DHT22;18502;43.574;1.276;2024-02-04T02:48:11;5.80;99.90
31979;DHT22;18502;43.574;1.276;2024-02-04T02:50:37;5.90;99.90
31979;DHT22;18502;43.574;1.276;2024-02-04T02:53:03;5.80;99.90
31979;DHT22;18502;43.574;1.276;2024-02-04T02:55:29;5.80;99.90
31979;DHT22;18502;43.574;1.276;2024-02-04T02:57:55;5.80;99.90
31979;DHT22;18502;43.574;1.276;2024-02-04T03:00:20;5.90;99.90
31979;DHT22;18502;43.574;1.276;2024-02-04T03:02:46;5.90;99.90
31979;DHT22;18502;43.574;1.276;2024-02-04T03:05:12;5.90;99.90
31979;DHT22;18502;43.574;1.276;2024-02-04T03:07:38;5.90;99.90
31979;DHT22;18502;43.574;1.276;2024-02-04T03:10:04;5.90;99.90
31979;DHT22;18502;43.574;1.276;2024-02-04T03:12:30;5.90;99.90
31979;DHT22;18502;43.574;1.276;2024-02-04T03:14:55;5.90;99.90
31979;DHT22;18502;43.574;1.276;2024-02-04T03:17:21;5.80;99.90
31979;DHT22;18502;43.574;1.276;2024-02-04T03:19:48;5.90;99.90
31979;DHT22;18502;43.574;1.276;2024-02-04T03:22:14;5.90;99.90
31979;DHT22;18502;43.574;1.276;2024-02-04T03:24:40;5.90;99.90
31979;DHT22;18502;43.574;1.276;2024-02-04T03:27:06;5.90;99.90
31979;DHT22;18502;43.574;1.276;2024-02-04T03:29:31;5.90;99.90
31979;DHT22;18502;43.574;1.276;2024-02-04T03:31:57;5.90;99.90
31979;DHT22;18502;43.574;1.276;2024-02-04T03:34:23;5.90;99.90
31979;DHT22;18502;43.574;1.276;2024-02-04T03:36:48;5.80;99.90
31979;DHT22;18502;43.574;1.276;2024-02-04T03:39:14;5.80;99.90
31979;DHT22;18502;43.574;1.276;2024-02-04T03:41:39;5.80;99.90
31979;DHT22;18502;43.574;1.276;2024-02-04T03:44:05;5.70;99.90
31979;DHT22;18502;43.574;1.276;2024-02-04T03:46:31;5.50;99.90
31979;DHT22;18502;43.574;1.276;2024-02-04T03:48:57;5.60;99.90
31979;DHT22;18502;43.574;1.276;2024-02-04T03:51:22;5.70;99.90
31979;DHT22;18502;43.574;1.276;2024-02-04T03:53:50;5.70;99.90
31979;DHT22;18502;43.574;1.276;2024-02-04T03:56:16;5.70;99.90
31979;DHT22;18502;43.574;1.276;2024-02-04T03:58:41;5.70;99.90
31979;DHT22;18502;43.574;1.276;2024-02-04T04:01:11;5.80;99.90
31979;DHT22;18502;43.574;1.276;2024-02-04T04:03:42;5.80;99.90
31979;DHT22;18502;43.574;1.276;2024-02-04T04:06:09;5.80;99.90
31979;DHT22;18502;43.574;1.276;2024-02-04T04:08:35;5.80;99.90
31979;DHT22;18502;43.574;1.276;2024-02-04T04:11:01;5.80;99.90
31979;DHT22;18502;43.574;1.276;2024-02-04T04:13:27;5.80;99.90
31979;DHT22;18502;43.574;1.276;2024-02-04T04:15:53;5.80;99.90
31979;DHT22;18502;43.574;1.276;2024-02-04T04:18:19;5.70;99.90
31979;DHT22;18502;43.574;1.276;2024-02-04T04:20:44;5.40;99.90
31979;DHT22;18502;43.574;1.276;2024-02-04T04:23:10;5.20;99.90
31979;DHT22;18502;43.574;1.276;2024-02-04T04:25:36;5.10;99.90
31979;DHT22;18502;43.574;1.276;2024-02-04T04:28:01;5.20;99.90
31979;DHT22;18502;43.574;1.276;2024-02-04T04:30:27;5.30;99.90
31979;DHT22;18502;43.574;1.276;2024-02-04T04:32:52;5.20;99.90
31979;DHT22;18502;43.574;1.276;2024-02-04T04:35:18;5.20;99.90
31979;DHT22;18502;43.574;1.276;2024-02-04T04:37:44;5.40;99.90
31979;DHT22;18502;43.574;1.276;2024-02-04T04:40:10;5.50;99.90
31979;DHT22;18502;43.574;1.276;2024-02-04T04:42:35;5.50;99.90
31979;DHT22;18502;43.574;1.276;2024-02-04T04:45:01;5.40;99.90
31979;DHT22;18502;43.574;1.276;2024-02-04T04:47:27;5.30;99.90
31979;DHT22;18502;43.574;1.276;2024-02-04T04:49:52;5.30;99.90
31979;DHT22;18502;43.574;1.276;2024-02-04T04:52:18;5.10;99.90
31979;DHT22;18502;43.574;1.276;2024-02-04T04:54:43;5.10;99.90
31979;DHT22;18502;43.574;1.276;2024-02-04T04:57:09;5.00;99.90
31979;DHT22;18502;43.574;1.276;2024-02-04T04:59:35;4.90;99.90
31979;DHT22;18502;43.574;1.276;2024-02-04T05:02:03;4.90;99.90
31979;DHT22;18502;43.574;1.276;2024-02-04T05:04:30;4.90;99.90
31979;DHT22;18502;43.574;1.276;2024-02-04T05:06:55;5.00;99.90
31979;DHT22;18502;43.574;1.276;2024-02-04T05:09:22;4.90;99.90
31979;DHT22;18502;43.574;1.276;2024-02-04T05:11:47;4.80;99.90
31979;DHT22;18502;43.574;1.276;2024-02-04T05:14:13;4.80;99.90
31979;DHT22;18502;43.574;1.276;2024-02-04T05:16:39;4.70;99.90
31979;DHT22;18502;43.574;1.276;2024-02-04T05:19:04;4.80;99.90
31979;DHT22;18502;43.574;1.276;2024-02-04T05:21:30;4.80;99.90
31979;DHT22;18502;43.574;1.276;2024-02-04T05:23:55;5.00;99.90
31979;DHT22;18502;43.574;1.276;2024-02-04T05:26:21;4.80;99.90
31979;DHT22;18502;43.574;1.276;2024-02-04T05:28:47;4.80;99.90
31979;DHT22;18502;43.574;1.276;2024-02-04T05:31:12;4.60;99.90
31979;DHT22;18502;43.574;1.276;2024-02-04T05:33:38;4.60;99.90
31979;DHT22;18502;43.574;1.276;2024-02-04T05:36:04;4.50;99.90
31979;DHT22;18502;43.574;1.276;2024-02-04T05:38:30;4.50;99.90
31979;DHT22;18502;43.574;1.276;2024-02-04T05:40:56;4.60;99.90
31979;DHT22;18502;43.574;1.276;2024-02-04T05:43:22;4.60;99.90
31979;DHT22;18502;43.574;1.276;2024-02-04T05:45:47;4.60;99.90
31979;DHT22;18502;43.574;1.276;2024-02-04T05:48:13;4.50;99.90
31979;DHT22;18502;43.574;1.276;2024-02-04T05:50:39;4.50;99.90
31979;DHT22;18502;43.574;1.276;2024-02-04T05:53:05;4.50;99.90
31979;DHT22;18502;43.574;1.276;2024-02-04T05:55:30;4.50;99.90
31979;DHT22;18502;43.574;1.276;2024-02-04T05:57:56;4.70;99.90
31979;DHT22;18502;43.574;1.276;2024-02-04T06:00:23;4.70;99.90
31979;DHT22;18502;43.574;1.276;2024-02-04T06:02:49;4.70;99.90
31979;DHT22;18502;43.574;1.276;2024-02-04T06:05:15;4.60;99.90
31979;DHT22;18502;43.574;1.276;2024-02-04T06:07:42;4.50;99.90
31979;DHT22;18502;43.574;1.276;2024-02-04T06:10:09;4.50;99.90
31979;DHT22;18502;43.574;1.276;2024-02-04T06:12:35;4.70;99.90
31979;DHT22;18502;43.574;1.276;2024-02-04T06:15:00;4.80;99.90
31979;DHT22;18502;43.574;1.276;2024-02-04T06:17:26;4.80;99.90
31979;DHT22;18502;43.574;1.276;2024-02-04T06:19:52;4.90;99.90
31979;DHT22;18502;43.574;1.276;2024-02-04T06:22:17;4.80;99.90
31979;DHT22;18502;43.574;1.276;2024-02-04T06:24:43;4.90;99.90
31979;DHT22;18502;43.574;1.276;2024-02-04T06:27:08;4.90;99.90
31979;DHT22;18502;43.574;1.276;2024-02-04T06:29:35;4.90;99.90
31979;DHT22;18502;43.574;1.276;2024-02-04T06:32:02;5.00;99.90
31979;DHT22;18502;43.574;1.276;2024-02-04T06:34:28;5.00;99.90
31979;DHT22;18502;43.574;1.276;2024-02-04T06:36:54;5.10;99.90
31979;DHT22;18502;43.574;1.276;2024-02-04T06:39:20;5.10;99.90
31979;DHT22;18502;43.574;1.276;2024-02-04T06:41:45;5.10;99.90
31979;DHT22;18502;43.574;1.276;2024-02-04T06:44:11;5.10;99.90
31979;DHT22;18502;43.574;1.276;2024-02-04T06:46:37;5.10;99.90
31979;DHT22;18502;43.574;1.276;2024-02-04T06:49:03;5.10;99.90
31979;DHT22;18502;43.574;1.276;2024-02-04T06:51:28;5.10;99.90
31979;DHT22;18502;43.574;1.276;2024-02-04T06:53:54;5.20;99.90
31979;DHT22;18502;43.574;1.276;2024-02-04T06:56:20;5.10;99.90
31979;DHT22;18502;43.574;1.276;2024-02-04T06:58:45;5.10;99.90
31979;DHT22;18502;43.574;1.276;2024-02-04T07:01:11;5.00;99.90
31979;DHT22;18502;43.574;1.276;2024-02-04T07:03:37;5.00;99.90
31979;DHT22;18502;43.574;1.276;2024-02-04T07:06:04;5.20;99.90
31979;DHT22;18502;43.574;1.276;2024-02-04T07:08:29;5.00;99.90
31979;DHT22;18502;43.574;1.276;2024-02-04T07:10:55;5.00;99.90
31979;DHT22;18502;43.574;1.276;2024-02-04T07:13:21;4.90;99.90
31979;DHT22;18502;43.574;1.276;2024-02-04T07:15:47;5.10;99.90
31979;DHT22;18502;43.574;1.276;2024-02-04T07:18:13;5.00;99.90
31979;DHT22;18502;43.574;1.276;2024-02-04T07:20:39;4.80;99.90
31979;DHT22;18502;43.574;1.276;2024-02-04T07:23:05;4.80;99.90
31979;DHT22;18502;43.574;1.276;2024-02-04T07:25:31;4.80;99.90
31979;DHT22;18502;43.574;1.276;2024-02-04T07:27:57;4.90;99.90
31979;DHT22;18502;43.574;1.276;2024-02-04T07:30:24;5.00;99.90
31979;DHT22;18502;43.574;1.276;2024-02-04T07:32:49;5.10;99.90
31979;DHT22;18502;43.574;1.276;2024-02-04T07:35:16;5.10;99.90
31979;DHT22;18502;43.574;1.276;2024-02-04T07:37:42;4.80;99.90
31979;DHT22;18502;43.574;1.276;2024-02-04T07:40:08;4.50;99.90
31979;DHT22;18502;43.574;1.276;2024-02-04T07:42:33;4.50;99.90
31979;DHT22;18502;43.574;1.276;2024-02-04T07:44:59;4.50;99.90
31979;DHT22;18502;43.574;1.276;2024-02-04T07:47:25;4.60;99.90
31979;DHT22;18502;43.574;1.276;2024-02-04T07:49:50;4.80;99.90
31979;DHT22;18502;43.574;1.276;2024-02-04T07:52:16;5.00;99.90
31979;DHT22;18502;43.574;1.276;2024-02-04T07:54:42;5.20;99.90
31979;DHT22;18502;43.574;1.276;2024-02-04T07:57:09;5.20;99.90
31979;DHT22;18502;43.574;1.276;2024-02-04T07:59:35;5.20;99.90
31979;DHT22;18502;43.574;1.276;2024-02-04T08:02:01;5.30;99.90
31979;DHT22;18502;43.574;1.276;2024-02-04T08:04:27;5.10;99.90
31979;DHT22;18502;43.574;1.276;2024-02-04T08:06:54;5.20;99.90
31979;DHT22;18502;43.574;1.276;2024-02-04T08:09:19;5.10;99.90
31979;DHT22;18502;43.574;1.276;2024-02-04T08:11:45;5.20;99.90
31979;DHT22;18502;43.574;1.276;2024-02-04T08:14:11;5.30;99.90
31979;DHT22;18502;43.574;1.276;2024-02-04T08:16:36;5.10;99.90
31979;DHT22;18502;43.574;1.276;2024-02-04T08:19:02;5.20;99.90
31979;DHT22;18502;43.574;1.276;2024-02-04T08:21:27;5.10;99.90
31979;DHT22;18502;43.574;1.276;2024-02-04T08:23:56;4.90;99.90
31979;DHT22;18502;43.574;1.276;2024-02-04T08:26:22;4.80;99.90
31979;DHT22;18502;43.574;1.276;2024-02-04T08:28:48;4.90;99.90
31979;DHT22;18502;43.574;1.276;2024-02-04T08:31:13;5.00;99.90
31979;DHT22;18502;43.574;1.276;2024-02-04T08:33:39;5.30;99.90
31979;DHT22;18502;43.574;1.276;2024-02-04T08:36:05;5.40;99.90
31979;DHT22;18502;43.574;1.276;2024-02-04T08:38:32;5.60;99.90
31979;DHT22;18502;43.574;1.276;2024-02-04T08:40:57;5.80;99.90
31979;DHT22;18502;43.574;1.276;2024-02-04T08:43:23;5.90;99.90
31979;DHT22;18502;43.574;1.276;2024-02-04T08:45:49;6.00;99.90
31979;DHT22;18502;43.574;1.276;2024-02-04T08:48:14;5.30;99.90
31979;DHT22;18502;43.574;1.276;2024-02-04T08:50:40;5.40;99.90
31979;DHT22;18502;43.574;1.276;2024-02-04T08:53:06;5.60;99.90
31979;DHT22;18502;43.574;1.276;2024-02-04T08:55:32;5.50;99.90
31979;DHT22;18502;43.574;1.276;2024-02-04T08:57:57;5.10;99.90
31979;DHT22;18502;43.574;1.276;2024-02-04T09:00:23;5.40;99.90
31979;DHT22;18502;43.574;1.276;2024-02-04T09:02:49;5.30;99.90
31979;DHT22;18502;43.574;1.276;2024-02-04T09:05:14;5.50;99.90
31979;DHT22;18502;43.574;1.276;2024-02-04T09:07:42;5.50;99.90
31979;DHT22;18502;43.574;1.276;2024-02-04T09:10:07;5.40;99.90
31979;DHT22;18502;43.574;1.276;2024-02-04T09:12:33;5.60;99.90
31979;DHT22;18502;43.574;1.276;2024-02-04T09:14:59;5.80;99.90
31979;DHT22;18502;43.574;1.276;2024-02-04T09:17:24;5.60;99.90
31979;DHT22;18502;43.574;1.276;2024-02-04T09:19:50;5.40;99.90
31979;DHT22;18502;43.574;1.276;2024-02-04T09:22:16;5.40;99.90
31979;DHT22;18502;43.574;1.276;2024-02-04T09:24:42;5.50;99.90
31979;DHT22;18502;43.574;1.276;2024-02-04T09:27:07;5.60;99.90
31979;DHT22;18502;43.574;1.276;2024-02-04T09:29:33;5.60;99.90
31979;DHT22;18502;43.574;1.276;2024-02-04T09:31:58;5.70;99.90
31979;DHT22;18502;43.574;1.276;2024-02-04T09:34:24;5.90;99.90
31979;DHT22;18502;43.574;1.276;2024-02-04T09:36:50;6.20;99.90
31979;DHT22;18502;43.574;1.276;2024-02-04T09:39:18;6.50;99.90
31979;DHT22;18502;43.574;1.276;2024-02-04T09:41:44;6.70;99.90
31979;DHT22;18502;43.574;1.276;2024-02-04T09:44:10;6.90;99.90
31979;DHT22;18502;43.574;1.276;2024-02-04T09:46:36;6.80;99.90
31979;DHT22;18502;43.574;1.276;2024-02-04T09:49:02;6.60;99.90
31979;DHT22;18502;43.574;1.276;2024-02-04T09:51:29;6.60;99.90
31979;DHT22;18502;43.574;1.276;2024-02-04T09:53:58;6.00;99.90
31979;DHT22;18502;43.574;1.276;2024-02-04T09:56:26;6.10;99.90
31979;DHT22;18502;43.574;1.276;2024-02-04T09:58:52;6.00;99.90
31979;DHT22;18502;43.574;1.276;2024-02-04T10:01:19;6.00;99.90
31979;DHT22;18502;43.574;1.276;2024-02-04T10:03:47;6.10;99.90
31979;DHT22;18502;43.574;1.276;2024-02-04T10:06:13;5.90;99.90
31979;DHT22;18502;43.574;1.276;2024-02-04T10:08:38;5.90;99.90
31979;DHT22;18502;43.574;1.276;2024-02-04T10:11:04;6.40;99.90
31979;DHT22;18502;43.574;1.276;2024-02-04T10:13:30;6.00;99.90
31979;DHT22;18502;43.574;1.276;2024-02-04T10:15:55;6.20;99.90
31979;DHT22;18502;43.574;1.276;2024-02-04T10:18:22;6.60;99.90
31979;DHT22;18502;43.574;1.276;2024-02-04T10:20:48;7.10;99.90
31979;DHT22;18502;43.574;1.276;2024-02-04T10:23:14;7.20;99.90
31979;DHT22;18502;43.574;1.276;2024-02-04T10:25:39;7.40;99.90
31979;DHT22;18502;43.574;1.276;2024-02-04T10:28:05;6.60;99.90
31979;DHT22;18502;43.574;1.276;2024-02-04T10:30:31;6.60;99.90
31979;DHT22;18502;43.574;1.276;2024-02-04T10:32:56;6.80;99.90
31979;DHT22;18502;43.574;1.276;2024-02-04T10:35:23;7.40;99.90
31979;DHT22;18502;43.574;1.276;2024-02-04T10:37:52;6.70;99.90
31979;DHT22;18502;43.574;1.276;2024-02-04T10:40:18;6.30;99.90
31979;DHT22;18502;43.574;1.276;2024-02-04T10:42:45;6.40;99.90
31979;DHT22;18502;43.574;1.276;2024-02-04T10:45:11;6.70;99.90
31979;DHT22;18502;43.574;1.276;2024-02-04T10:47:40;6.70;99.90
31979;DHT22;18502;43.574;1.276;2024-02-04T10:50:08;6.80;99.90
31979;DHT22;18502;43.574;1.276;2024-02-04T10:52:40;6.90;99.90
31979;DHT22;18502;43.574;1.276;2024-02-04T10:55:11;7.40;99.90
31979;DHT22;18502;43.574;1.276;2024-02-04T10:57:38;7.40;99.90
31979;DHT22;18502;43.574;1.276;2024-02-04T11:00:05;7.20;99.90
31979;DHT22;18502;43.574;1.276;2024-02-04T11:02:38;7.00;99.90
31979;DHT22;18502;43.574;1.276;2024-02-04T11:05:04;7.30;99.90
31979;DHT22;18502;43.574;1.276;2024-02-04T11:07:32;7.10;99.90
31979;DHT22;18502;43.574;1.276;2024-02-04T11:10:03;7.10;99.90
31979;DHT22;18502;43.574;1.276;2024-02-04T11:12:30;7.10;99.90
31979;DHT22;18502;43.574;1.276;2024-02-04T11:15:05;7.10;99.90
31979;DHT22;18502;43.574;1.276;2024-02-04T11:23:48;8.30;99.90
31979;DHT22;18502;43.574;1.276;2024-02-04T11:26:17;8.70;99.90
31979;DHT22;18502;43.574;1.276;2024-02-04T11:28:43;9.00;99.90
31979;DHT22;18502;43.574;1.276;2024-02-04T11:31:17;9.10;99.90
31979;DHT22;18502;43.574;1.276;2024-02-04T11:33:43;9.10;99.90
31979;DHT22;18502;43.574;1.276;2024-02-04T11:36:16;9.00;99.90
31979;DHT22;18502;43.574;1.276;2024-02-04T11:38:44;9.00;99.90
31979;DHT22;18502;43.574;1.276;2024-02-04T11:41:24;8.90;99.90
31979;DHT22;18502;43.574;1.276;2024-02-04T11:43:55;8.90;99.90
31979;DHT22;18502;43.574;1.276;2024-02-04T11:46:21;9.10;99.90
31979;DHT22;18502;43.574;1.276;2024-02-04T11:48:53;9.40;99.90
31979;DHT22;18502;43.574;1.276;2024-02-04T11:51:22;9.50;99.90
31979;DHT22;18502;43.574;1.276;2024-02-04T11:53:51;9.60;99.90
31979;DHT22;18502;43.574;1.276;2024-02-04T11:56:19;9.50;99.90
31979;DHT22;18502;43.574;1.276;2024-02-04T11:58:46;9.50;99.90
31979;DHT22;18502;43.574;1.276;2024-02-04T12:01:12;9.70;99.90
31979;DHT22;18502;43.574;1.276;2024-02-04T12:03:37;9.80;99.90
31979;DHT22;18502;43.574;1.276;2024-02-04T12:06:04;10.10;99.90
31979;DHT22;18502;43.574;1.276;2024-02-04T12:08:32;10.20;99.90
31979;DHT22;18502;43.574;1.276;2024-02-04T12:10:58;10.20;99.90
31979;DHT22;18502;43.574;1.276;2024-02-04T12:13:24;10.00;99.90
31979;DHT22;18502;43.574;1.276;2024-02-04T12:15:50;9.60;99.90
31979;DHT22;18502;43.574;1.276;2024-02-04T12:18:16;9.90;99.90
31979;DHT22;18502;43.574;1.276;2024-02-04T12:20:48;10.10;99.90
31979;DHT22;18502;43.574;1.276;2024-02-04T12:23:18;10.30;99.90
31979;DHT22;18502;43.574;1.276;2024-02-04T12:25:48;10.60;99.90
31979;DHT22;18502;43.574;1.276;2024-02-04T12:28:14;10.90;99.90
31979;DHT22;18502;43.574;1.276;2024-02-04T12:30:40;10.90;99.90
31979;DHT22;18502;43.574;1.276;2024-02-04T12:33:06;10.90;99.90
31979;DHT22;18502;43.574;1.276;2024-02-04T12:35:32;10.90;99.90
31979;DHT22;18502;43.574;1.276;2024-02-04T12:37:59;11.10;99.90
31979;DHT22;18502;43.574;1.276;2024-02-04T12:40:26;11.20;99.90
31979;DHT22;18502;43.574;1.276;2024-02-04T12:42:59;11.10;99.90
31979;DHT22;18502;43.574;1.276;2024-02-04T12:45:27;11.10;99.90
31979;DHT22;18502;43.574;1.276;2024-02-04T12:47:55;11.00;99.90
31979;DHT22;18502;43.574;1.276;2024-02-04T12:50:21;10.90;99.90
31979;DHT22;18502;43.574;1.276;2024-02-04T12:52:48;11.10;99.90
31979;DHT22;18502;43.574;1.276;2024-02-04T12:55:25;11.80;99.90
31979;DHT22;18502;43.574;1.276;2024-02-04T12:58:07;12.20;99.90
31979;DHT22;18502;43.574;1.276;2024-02-04T13:00:37;12.00;99.90
31979;DHT22;18502;43.574;1.276;2024-02-04T13:03:04;12.00;99.90
31979;DHT22;18502;43.574;1.276;2024-02-04T13:05:30;12.20;99.90
31979;DHT22;18502;43.574;1.276;2024-02-04T13:08:00;12.30;99.90
31979;DHT22;18502;43.574;1.276;2024-02-04T13:10:35;12.40;99.90
31979;DHT22;18502;43.574;1.276;2024-02-04T13:13:04;12.20;99.90
31979;DHT22;18502;43.574;1.276;2024-02-04T13:15:41;11.90;99.90
31979;DHT22;18502;43.574;1.276;2024-02-04T13:18:08;11.60;99.90
31979;DHT22;18502;43.574;1.276;2024-02-04T13:20:36;11.40;99.90
31979;DHT22;18502;43.574;1.276;2024-02-04T13:23:01;11.30;99.90
31979;DHT22;18502;43.574;1.276;2024-02-04T13:25:30;11.00;99.90
31979;DHT22;18502;43.574;1.276;2024-02-04T13:27:56;10.80;99.90
31979;DHT22;18502;43.574;1.276;2024-02-04T13:30:22;10.80;99.90
31979;DHT22;18502;43.574;1.276;2024-02-04T13:32:48;10.90;99.90
31979;DHT22;18502;43.574;1.276;2024-02-04T13:35:13;10.60;99.90
31979;DHT22;18502;43.574;1.276;2024-02-04T13:37:47;10.40;99.90
31979;DHT22;18502;43.574;1.276;2024-02-04T13:40:17;10.20;99.90
31979;DHT22;18502;43.574;1.276;2024-02-04T13:42:43;10.20;99.90
31979;DHT22;18502;43.574;1.276;2024-02-04T13:45:09;10.30;99.90
31979;DHT22;18502;43.574;1.276;2024-02-04T13:47:35;10.20;99.90
31979;DHT22;18502;43.574;1.276;2024-02-04T13:50:01;10.20;99.90
31979;DHT22;18502;43.574;1.276;2024-02-04T13:52:28;10.20;99.90
31979;DHT22;18502;43.574;1.276;2024-02-04T13:54:54;10.20;99.90
31979;DHT22;18502;43.574;1.276;2024-02-04T13:57:19;10.00;99.90
31979;DHT22;18502;43.574;1.276;2024-02-04T13:59:45;10.00;99.90
31979;DHT22;18502;43.574;1.276;2024-02-04T14:02:11;10.10;99.90
31979;DHT22;18502;43.574;1.276;2024-02-04T14:04:36;10.10;99.90
31979;DHT22;18502;43.574;1.276;2024-02-04T14:07:02;10.10;99.90
31979;DHT22;18502;43.574;1.276;2024-02-04T14:09:28;10.00;99.90
31979;DHT22;18502;43.574;1.276;2024-02-04T14:11:54;10.00;99.90
31979;DHT22;18502;43.574;1.276;2024-02-04T14:14:23;9.90;99.90
31979;DHT22;18502;43.574;1.276;2024-02-04T14:16:48;10.10;99.90
31979;DHT22;18502;43.574;1.276;2024-02-04T14:19:14;9.90;99.90
31979;DHT22;18502;43.574;1.276;2024-02-04T14:21:43;10.00;99.90
31979;DHT22;18502;43.574;1.276;2024-02-04T14:24:09;10.00;99.90
31979;DHT22;18502;43.574;1.276;2024-02-04T14:26:36;9.90;99.90
31979;DHT22;18502;43.574;1.276;2024-02-04T14:29:02;9.80;99.90
31979;DHT22;18502;43.574;1.276;2024-02-04T14:31:28;9.80;99.90
31979;DHT22;18502;43.574;1.276;2024-02-04T14:33:53;9.70;99.90
31979;DHT22;18502;43.574;1.276;2024-02-04T14:36:19;9.90;99.90
31979;DHT22;18502;43.574;1.276;2024-02-04T14:38:45;10.00;99.90
31979;DHT22;18502;43.574;1.276;2024-02-04T14:41:11;9.90;99.90
31979;DHT22;18502;43.574;1.276;2024-02-04T14:43:37;9.80;99.90
31979;DHT22;18502;43.574;1.276;2024-02-04T14:46:03;9.70;99.90
31979;DHT22;18502;43.574;1.276;2024-02-04T14:48:28;9.50;99.90
31979;DHT22;18502;43.574;1.276;2024-02-04T14:50:54;9.40;99.90
31979;DHT22;18502;43.574;1.276;2024-02-04T14:53:21;9.60;99.90
31979;DHT22;18502;43.574;1.276;2024-02-04T14:55:47;9.40;99.90
31979;DHT22;18502;43.574;1.276;2024-02-04T14:58:13;9.40;99.90
31979;DHT22;18502;43.574;1.276;2024-02-04T15:00:38;9.30;99.90
31979;DHT22;18502;43.574;1.276;2024-02-04T15:03:04;9.30;99.90
31979;DHT22;18502;43.574;1.276;2024-02-04T15:05:30;9.30;99.90
31979;DHT22;18502;43.574;1.276;2024-02-04T15:07:56;9.30;99.90
31979;DHT22;18502;43.574;1.276;2024-02-04T15:10:22;9.10;99.90
31979;DHT22;18502;43.574;1.276;2024-02-04T15:12:49;9.00;99.90
31979;DHT22;18502;43.574;1.276;2024-02-04T15:15:15;8.90;99.90
31979;DHT22;18502;43.574;1.276;2024-02-04T15:17:41;8.80;99.90
31979;DHT22;18502;43.574;1.276;2024-02-04T15:20:07;8.80;99.90
31979;DHT22;18502;43.574;1.276;2024-02-04T15:22:34;8.80;99.90
31979;DHT22;18502;43.574;1.276;2024-02-04T15:25:00;8.80;99.90
31979;DHT22;18502;43.574;1.276;2024-02-04T15:27:27;8.80;99.90
31979;DHT22;18502;43.574;1.276;2024-02-04T15:29:54;8.70;99.90
31979;DHT22;18502;43.574;1.276;2024-02-04T15:32:21;8.50;99.90
31979;DHT22;18502;43.574;1.276;2024-02-04T15:34:48;8.40;99.90
31979;DHT22;18502;43.574;1.276;2024-02-04T15:37:13;8.40;99.90
31979;DHT22;18502;43.574;1.276;2024-02-04T15:39:40;8.40;99.90
31979;DHT22;18502;43.574;1.276;2024-02-04T15:42:06;8.30;99.90
31979;DHT22;18502;43.574;1.276;2024-02-04T15:44:32;8.30;99.90
31979;DHT22;18502;43.574;1.276;2024-02-04T15:47:04;8.20;99.90
31979;DHT22;18502;43.574;1.276;2024-02-04T15:49:31;8.10;99.90